Flight Track Log - Related Links

Times and Time Zones

All times are in EST time to prevent confusion due to time zone crossing. See the EJA749 flight status page for this flight to view local times or setup timezone preferences in your user account.

Time Position Orientation Groundspeed Altitude Reporting Facility
EST Latitude Longitude Course Direction KTS km/h meters Rate Location/Type
Sun 07:31:39 41.0333 -73.7167 252° West 197 365 762  Level New York TRACON
Sun 07:32:39 41.0167 -73.7833 252° West 203 377 1,463 1,052 Climbing New York TRACON
Sun 07:33:39 40.9833 -73.8500 236° Southwest 245 454 2,865 1,036 Climbing New York TRACON
Sun 07:34:39 40.9167 -73.9167 217° Southwest 291 539 3,536 396 Climbing New York TRACON
Sun 07:35:39 40.8500 -73.9833 217° Southwest 321 594 3,658 61 Climbing New York TRACON
Sun 07:36:39 40.7667 -74.0333 204° Southwest 335 621 3,658 323 Level New York TRACON
Sun 07:39:03 40.5556 -74.1308 199° South 359 665 4,755 583 Climbing New York Center
Sun 07:40:03 40.4631 -74.1536 191° South 350 649 5,639 762 Climbing New York Center
Sun 07:41:03 40.3689 -74.1733 189° South 361 668 6,279 701 Climbing New York Center
Sun 07:42:03 40.2575 -74.2006 191° South 388 719 7,041 518 Climbing New York Center
Sun 07:43:03 40.1611 -74.2881 215° Southwest 399 739 7,315 125 Climbing New York Center
Sun 07:44:59 39.9708 -74.4789 218° Southwest 424 785 7,407 277 Climbing Washington Center
Sun 07:46:01 39.8697 -74.5722 215° Southwest 439 813 8,138 671 Climbing Washington Center
Sun 07:46:59 39.7600 -74.6739 215° Southwest 445 824 8,748 615 Climbing Washington Center
Sun 07:48:00 39.6628 -74.7667 216° Southwest 445 824 9,357 620 Climbing Washington Center
Sun 07:49:00 39.5675 -74.8594 217° Southwest 445 824 9,997 558 Climbing Washington Center
Sun 07:49:58 39.4636 -74.9303 208° Southwest 440 814 10,455 457 Climbing Washington Center
Sun 07:51:00 39.3517 -74.9983 205° Southwest 440 814 10,912 408 Climbing Washington Center
Sun 07:51:59 39.2456 -75.0636 205° Southwest 435 806 11,278 338 Climbing Washington Center
Sun 07:52:59 39.1394 -75.1314 206° Southwest 435 806 11,582 151 Climbing Washington Center
Sun 07:54:00 39.0314 -75.1989 206° Southwest 430 797 11,582  Level Washington Center
Sun 07:55:01 38.9233 -75.2661 206° Southwest 430 797 11,582  Level Washington Center
Sun 07:55:59 38.8131 -75.3358 206° Southwest 435 806 11,582  Level Washington Center
Sun 07:56:59 38.7006 -75.4003 204° Southwest 441 816 11,582  Level Washington Center
Sun 07:57:59 38.5900 -75.4694 206° Southwest 447 827 11,582  Level Washington Center
Sun 07:59:01 38.4797 -75.5333 204° Southwest 447 827 11,582  Level Washington Center
Sun 08:00:01 38.3669 -75.6022 206° Southwest 447 827 11,582  Level Washington Center
Sun 08:00:59 38.2692 -75.6578 204° Southwest 447 827 11,582  Level Washington Center
Sun 08:01:58 38.1583 -75.7239 205° Southwest 442 819 11,582  Level Washington Center
Sun 08:02:59 38.0375 -75.8028 207° Southwest 442 819 11,582  Level Washington Center
Sun 08:04:00 37.9350 -75.8578 203° Southwest 442 819 11,582  Level Washington Center
Sun 08:05:01 37.8244 -75.9203 204° Southwest 442 819 11,582  Level Washington Center
Sun 08:06:01 37.7094 -75.9986 208° Southwest 436 808 11,582  Level Washington Center
Sun 08:06:58 37.5986 -76.0611 204° Southwest 431 798 11,582  Level Washington Center
Sun 08:08:00 37.4878 -76.1258 205° Southwest 431 798 11,582  Level Washington Center
Sun 08:09:00 37.3856 -76.1800 203° Southwest 438 811 11,582  Level Washington Center
Sun 08:10:01 37.2725 -76.2444 204° Southwest 443 821 11,582  Level Washington Center
Sun 08:10:59 37.1658 -76.3061 205° Southwest 443 821 11,582  Level Washington Center
Sun 08:11:59 37.0464 -76.3594 200° South 443 821 11,582  Level Washington Center
Sun 08:13:00 36.9272 -76.4131 200° South 448 830 11,582  Level Washington Center
Sun 08:14:01 36.8081 -76.4636 199° South 453 838 11,582  Level Washington Center
Sun 08:15:00 36.6908 -76.5192 201° Southwest 453 838 11,582  Level Washington Center
Sun 08:16:01 36.5714 -76.5694 199° South 453 838 11,582  Level Washington Center
Sun 08:17:00 36.4522 -76.6197 199° South 453 838 11,582  Level Washington Center
Sun 08:18:00 36.3347 -76.6672 198° South 448 830 11,582  Level Washington Center
Sun 08:19:01 36.2156 -76.7169 199° South 448 830 11,582  Level Washington Center
Sun 08:19:59 36.0961 -76.7694 200° South 448 830 11,582  Level Washington Center
Sun 08:20:59 35.9786 -76.8164 198° South 448 830 11,582  Level Washington Center
Sun 08:22:00 35.8592 -76.8658 199° South 453 838 11,582  Level Washington Center
Sun 08:23:00 35.7397 -76.9150 198° South 453 838 11,582  Level Washington Center
Sun 08:23:59 35.6119 -76.9692 199° South 453 838 11,582  Level Washington Center
Sun 08:24:59 35.4903 -77.0181 198° South 453 838 11,582  Level Washington Center
Sun 08:25:59 35.3708 -77.0694 199° South 453 838 11,582  Level Washington Center
Sun 08:27:00 35.2511 -77.1181 198° South 453 838 11,582  Level Washington Center
Sun 08:27:59 35.1317 -77.1667 198° South 453 838 11,582  Level Washington Center
Sun 08:28:59 35.0078 -77.2175 199° South 453 838 11,582  Level Washington Center
Sun 08:30:00 34.8842 -77.2681 199° South 464 859 11,582  Level Washington Center
Sun 08:31:00 34.7644 -77.3214 200° South 464 859 11,582  Level Washington Center
Sun 08:32:01 34.6428 -77.3717 199° South 469 869 11,582  Level Washington Center
Sun 08:32:59 34.5208 -77.4194 198° South 469 869 11,582  Level Washington Center
Sun 08:33:59 34.3992 -77.4672 198° South 469 869 11,582  Level Washington Center
Sun 08:35:01 34.2900 -77.5125 199° South 469 869 11,582  Level Washington Center
Sun 08:35:58 34.1639 -77.5622 198° South 469 869 11,582  Level Washington Center
Sun 08:37:00 34.0422 -77.6094 198° South 469 869 11,582  Level Washington Center
Sun 08:38:28 33.8500 -77.6839 198° South 473 875 11,582  Level Jacksonville Center
Sun 08:39:28 33.7269 -77.7361 199° South 473 875 11,582  Level Jacksonville Center
Sun 08:40:28 33.5850 -77.7894 197° South 478 885 11,582  Level Jacksonville Center
Sun 08:41:28 33.4639 -77.8386 199° South 473 875 11,582  Level Jacksonville Center
Sun 08:42:28 33.3386 -77.8881 198° South 473 875 11,582  Level Jacksonville Center
Sun 08:43:28 33.2114 -77.9400 199° South 473 875 11,582  Level Jacksonville Center
Sun 08:44:28 33.0878 -77.9864 197° South 473 875 11,582  Level Jacksonville Center
Sun 08:45:28 32.9625 -78.0328 197° South 473 875 11,582  Level Jacksonville Center
Sun 08:46:28 32.8350 -78.0842 199° South 473 875 11,582  Level Jacksonville Center
Sun 08:47:28 32.7094 -78.1328 198° South 473 875 11,582  Level Jacksonville Center
Sun 08:48:28 32.5861 -78.1811 198° South 473 875 11,582  Level Jacksonville Center
Sun 08:49:28 32.4586 -78.2297 198° South 473 875 11,582  Level Jacksonville Center
Sun 08:50:28 32.3350 -78.2778 198° South 473 875 11,582  Level Jacksonville Center
Sun 08:51:28 32.2053 -78.3286 198° South 484 896 11,582  Level Jacksonville Center
Sun 08:52:28 32.0839 -78.3739 198° South 478 885 11,582  Level Jacksonville Center
Sun 08:53:28 31.9542 -78.4242 198° South 478 885 11,582  Level Jacksonville Center
Sun 08:54:28 31.8306 -78.4717 198° South 478 885 11,582  Level Jacksonville Center
Sun 08:55:28 31.7028 -78.5194 198° South 478 885 11,582  Level Jacksonville Center
Sun 08:56:28 31.5772 -78.5692 199° South 478 885 11,582  Level Jacksonville Center
Sun 08:57:28 31.4494 -78.6164 197° South 478 885 11,582  Level Jacksonville Center
Sun 08:58:28 31.3214 -78.6636 197° South 478 885 11,582  Level Jacksonville Center
Sun 08:59:28 31.1936 -78.7108 198° South 478 885 11,582  Level Jacksonville Center
Sun 09:00:28 31.0678 -78.7575 198° South 478 885 11,582  Level Jacksonville Center
Sun 09:01:29 30.9400 -78.8044 197° South 483 895 11,582 -46 Level Jacksonville Center
Sun 09:02:28 30.8142 -78.8533 198° South 483 895 11,491 -154 Descending Jacksonville Center
Sun 09:03:28 30.6925 -78.8972 197° South 473 875 11,278 -120 Descending Jacksonville Center
Sun 09:04:15 30.6239 -78.9231 198° South 474 877 11,278  Level Miami Center
Sun 09:05:15 30.4856 -78.9733 197° South 457 847 11,278  Level Miami Center
Sun 09:06:15 30.3578 -79.0236 199° South 472 874 11,278  Level Miami Center
Sun 09:07:15 30.2339 -79.0789 201° Southwest 477 884 11,278  Level Miami Center
Sun 09:08:15 30.1081 -79.1314 200° South 483 895 11,278  Level Miami Center
Sun 09:09:15 29.9861 -79.1933 204° Southwest 483 895 11,278 -152 Level Miami Center
Sun 09:10:15 29.8622 -79.2411 198° South 483 895 10,973 -305 Descending Miami Center
Sun 09:11:15 29.7403 -79.2981 202° Southwest 477 884 10,668 -152 Descending Miami Center
Sun 09:12:15 29.6144 -79.3478 199° South 477 884 10,668 -213 Level Miami Center
Sun 09:13:15 29.4986 -79.4047 203° Southwest 471 872 10,241 -488 Descending Miami Center
Sun 09:14:15 29.3811 -79.4519 199° South 458 848 9,693 -518 Descending Miami Center
Sun 09:15:15 29.2633 -79.4967 198° South 452 837 9,205 -564 Descending Miami Center
Sun 09:16:15 29.1456 -79.5508 202° Southwest 452 837 8,565 -625 Descending Miami Center
Sun 09:17:15 29.0708 -79.6442 228° Southwest 413 764 7,955 -610 Descending Miami Center
Sun 09:18:15 29.0369 -79.7739 253° West 399 739 7,346 -579 Descending Miami Center
Sun 09:19:15 28.9969 -79.8914 249° West 399 739 6,797 -564 Descending Miami Center
Sun 09:20:15 28.9589 -80.0067 249° West 405 750 6,218 -564 Descending Miami Center
Sun 09:21:15 28.9228 -80.1264 251° West 405 750 5,669 -545 Descending Miami Center
Sun 09:22:46 28.8667 -80.3000 250° West 341 631 4,846 -521 Descending Orlando TRACON
Sun 09:23:46 28.8333 -80.4000 249° West 336 623 4,359 -290 Descending Orlando TRACON
Sun 09:24:46 28.8167 -80.5000 259° West 337 624 4,267 -46 Descending Orlando TRACON
Sun 09:25:46 28.8000 -80.6167 261° West 332 615 4,267 -261 Level Orlando TRACON
Sun 09:26:52 28.7833 -80.7167 259° West 321 594 3,719 -637 Descending Orlando TRACON
Sun 09:27:58 28.7500 -80.8167 249° West 298 552 2,865 -697 Descending Orlando TRACON
Sun 09:28:58 28.7333 -80.9000 257° West 286 529 2,256 -529 Descending Orlando TRACON
Sun 09:29:52 28.7167 -80.9833 257° West 277 513 1,859 -208 Descending Orlando TRACON
Sun 09:30:52 28.7000 -81.0667 257° West 270 501 1,859 -15 Level Orlando TRACON
Sun 09:31:52 28.6667 -81.1500 246° West 269 499 1,829 -183 Descending Orlando TRACON
Sun 09:32:52 28.6333 -81.2167 240° Southwest 262 486 1,494 -396 Descending Orlando TRACON
Sun 09:33:52 28.5833 -81.2833 230° Southwest 253 468 1,036 -347 Descending Orlando TRACON
Sun 09:34:53 28.5500 -81.3167 221° Southwest 185 343 792 -276 Descending Orlando TRACON
Sun 09:35:58 28.5000 -81.3333 196° South 150 278 457 -305 Descending Orlando TRACON
Sun 09:36:59 28.4667 -81.3333 180° South 120 222 152 -300 Descending Orlando TRACON

Login

Don't have an account? Register now (free) for customized features, flight alerts, and more!